Alaska Titan — WDE4789 — position and weather

sailwx.info

Track history (hours):
 
Tides and Currents Weather Stations Pressure Air Temp Water Temp Dewpoint Dewpoint Depression Visibility Wind Speed Wind Dir Waves Ship Positions

Alaska Titan

Owner: WESTERN TOWBOAT CO, Seattle, WA. More information available from US FCC via Universal Licensing System and Coast Guard Vessel Documentation Center.

Last reported at 2017-Jun-28 09:11 UTC. Time now 2017-Jun-28 16:05 UTC.
Position N 47°39' W 122°22'.

Length 40 m; draft 6 m.

Type: Tow > 200 m length. MMSI: 367357890.

Date/timePositionNaut miles runAvg speedWind from/ knotsBaromVisibWave heightAir tempDewpointWater temp
2017-Jun-28 09:11N 47°39' W 122°22'0 0.0
2017-Jun-28 09:00N 47°39' W 122°22'1 2.0
2017-Jun-28 08:30N 47°40' W 122°23'1 1.8
2017-Jun-28 08:00N 47°40' W 122°24'3 6.1
2017-Jun-28 07:30N 47°37' W 122°24'3 6.2
2017-Jun-28 07:00N 47°35' W 122°21'0 0.4
2017-Jun-28 06:30N 47°36' W 122°21'1 2.0
2017-Jun-28 06:00N 47°36' W 122°22'5 9.1
2017-Jun-28 05:30N 47°38' W 122°28'5 9.1
2017-Jun-28 05:00N 47°43' W 122°27'5 9.4
2017-Jun-28 04:30N 47°48' W 122°27'510.3
2017-Jun-28 04:00N 47°53' W 122°29'610.4
2017-Jun-28 03:28N 47°57' W 122°35'1110.7
2017-Jun-28 02:27N 48°07' W 122°41'613.5
2017-Jun-28 01:58N 48°12' W 122°48'511.1
2017-Jun-28 01:29N 48°17' W 122°48'510.0
2017-Jun-28 00:59N 48°22' W 122°46'4 8.8
2017-Jun-28 00:30N 48°26' W 122°44'4 8.1
2017-Jun-28 00:00N 48°30' W 122°45'4 8.0
2017-Jun-27 23:30N 48°34' W 122°45'4 8.3
2017-Jun-27 23:00N 48°38' W 122°44'5 9.1
2017-Jun-27 22:30N 48°43' W 122°45'610.4
2017-Jun-27 21:56N 48°47' W 122°52'511.7
2017-Jun-27 21:29N 48°50' W 122°59'610.9
2017-Jun-27 20:54N 48°54' W 123°06'1610.8
2017-Jun-27 19:26N 49°04' W 123°25'5610.3
2017-Jun-27 13:58N 49°39' W 124°33'510.7
2017-Jun-27 13:31N 49°41' W 124°39'510.7
2017-Jun-27 13:00N 49°44' W 124°46'510.7
2017-Jun-27 12:30N 49°48' W 124°52'510.5
2017-Jun-27 12:01N 49°51' W 124°58'510.1
2017-Jun-27 11:31N 49°55' W 125°04'510.2
2017-Jun-27 11:00N 49°58' W 125°10'611.5
2017-Jun-27 10:31N 50°03' W 125°14'510.4
2017-Jun-27 10:00N 50°07' W 125°19'4 8.8
2017-Jun-27 09:30N 50°11' W 125°22'2 3.6
2017-Jun-27 09:00N 50°13' W 125°23'2 3.1
2017-Jun-27 08:30N 50°14' W 125°23'2 3.7
2017-Jun-27 08:00N 50°16' W 125°24'2 3.8
2017-Jun-27 07:29N 50°18' W 125°25'2 3.8
2017-Jun-27 07:01N 50°20' W 125°25'4 4.5
2017-Jun-27 06:11N 50°21' W 125°31'6 4.8
2017-Jun-27 04:59N 50°22' W 125°40'5 6.2
2017-Jun-27 04:14N 50°23' W 125°47'38 8.8
2017-Jun-26 23:54N 50°36' W 126°43'3 7.8
2017-Jun-26 23:30N 50°38' W 126°47'4 8.7
2017-Jun-26 23:00N 50°41' W 126°52'6 7.9
2017-Jun-26 22:17N 50°43' W 127°00'3 8.6
2017-Jun-26 21:58N 50°44' W 127°04'510.1
2017-Jun-26 21:27N 50°46' W 127°12'410.0
2017-Jun-26 21:00N 50°47' W 127°18'510.1
2017-Jun-26 20:30N 50°50' W 127°26'510.0
2017-Jun-26 20:00N 50°52' W 127°33'5 9.7
2017-Jun-26 19:30N 50°55' W 127°39'5 9.2
2017-Jun-26 19:00N 50°58' W 127°44'5 9.4
2017-Jun-26 18:30N 51°02' W 127°48'5 9.6
2017-Jun-26 18:00N 51°06' W 127°52'510.1
2017-Jun-26 17:29N 51°11' W 127°53'510.2
2017-Jun-26 16:58N 51°16' W 127°54'6 9.9
2017-Jun-26 16:22N 51°22' W 127°58'4 9.3
2017-Jun-26 15:58N 51°24' W 128°02'4 9.4
2017-Jun-26 15:30N 51°27' W 128°08'5 9.4
2017-Jun-26 15:01N 51°31' W 128°12'5 9.6
2017-Jun-26 14:31N 51°35' W 128°17'10 9.9
2017-Jun-26 13:30N 51°43' W 128°25'510.0
2017-Jun-26 13:00N 51°47' W 128°29'510.1
2017-Jun-26 12:30N 51°52' W 128°33'510.2
2017-Jun-26 12:00N 51°57' W 128°36'510.6
2017-Jun-26 11:30N 52°02' W 128°38'510.5
2017-Jun-26 11:00N 52°07' W 128°41'306 8.7
2017-Jun-25 00:00N 55°54' W 134°30'98 8.2 160 / 151020.0 0.5 11.0
2017-Jun-24 12:00N 57°00' W 136°42'107 8.9 130 / 251022.0 5.4 12.9
2017-Jun-24 00:00N 58°06' W 139°18'115 9.5 100 / 51028.810.8 13.4
2017-Jun-23 12:00N 59°12' W 142°18'109 9.1 120 / 51032.010.8 11.6
2017-Jun-23 00:00N 59°54' W 145°36'   250 / 101032.210.8 16.3
2017-Jun-20 12:00N 59°30' W 143°54'110 9.2 140 / 101009.0 5.4 11.3
2017-Jun-20 00:00N 58°54' W 140°30'114 9.5 130 / 201006.3 5.4 14.5
2017-Jun-19 12:00N 58°12' W 137°06'   130 / 101009.010.8 14.1
Track history (hours):
 
Tides and Currents Weather Stations Pressure Air Temp Water Temp Dewpoint Dewpoint Depression Visibility Wind Speed Wind Dir Waves Ship Positions

Alaska Titan

Owner: WESTERN TOWBOAT CO, Seattle, WA. More information available from US FCC via Universal Licensing System and Coast Guard Vessel Documentation Center.

Last reported at 2017-Jun-28 09:11 UTC. Time now 2017-Jun-28 16:05 UTC.
Position N 47°39' W 122°22'.

Length 40 m; draft 6 m.

Type: Tow > 200 m length. MMSI: 367357890.

Date/timePositionNaut miles runAvg speedWind from/ knotsBaromVisibWave heightAir tempDewpointWater temp
2017-Jun-28 09:11N 47°39' W 122°22'0 0.0
2017-Jun-28 09:00N 47°39' W 122°22'1 2.0
2017-Jun-28 08:30N 47°40' W 122°23'1 1.8
2017-Jun-28 08:00N 47°40' W 122°24'3 6.1
2017-Jun-28 07:30N 47°37' W 122°24'3 6.2
2017-Jun-28 07:00N 47°35' W 122°21'0 0.4
2017-Jun-28 06:30N 47°36' W 122°21'1 2.0
2017-Jun-28 06:00N 47°36' W 122°22'5 9.1
2017-Jun-28 05:30N 47°38' W 122°28'5 9.1
2017-Jun-28 05:00N 47°43' W 122°27'5 9.4
2017-Jun-28 04:30N 47°48' W 122°27'510.3
2017-Jun-28 04:00N 47°53' W 122°29'610.4
2017-Jun-28 03:28N 47°57' W 122°35'1110.7
2017-Jun-28 02:27N 48°07' W 122°41'613.5
2017-Jun-28 01:58N 48°12' W 122°48'511.1
2017-Jun-28 01:29N 48°17' W 122°48'510.0
2017-Jun-28 00:59N 48°22' W 122°46'4 8.8
2017-Jun-28 00:30N 48°26' W 122°44'4 8.1
2017-Jun-28 00:00N 48°30' W 122°45'4 8.0
2017-Jun-27 23:30N 48°34' W 122°45'4 8.3
2017-Jun-27 23:00N 48°38' W 122°44'5 9.1
2017-Jun-27 22:30N 48°43' W 122°45'610.4
2017-Jun-27 21:56N 48°47' W 122°52'511.7
2017-Jun-27 21:29N 48°50' W 122°59'610.9
2017-Jun-27 20:54N 48°54' W 123°06'1610.8
2017-Jun-27 19:26N 49°04' W 123°25'5610.3
2017-Jun-27 13:58N 49°39' W 124°33'510.7
2017-Jun-27 13:31N 49°41' W 124°39'510.7
2017-Jun-27 13:00N 49°44' W 124°46'510.7
2017-Jun-27 12:30N 49°48' W 124°52'510.5
2017-Jun-27 12:01N 49°51' W 124°58'510.1
2017-Jun-27 11:31N 49°55' W 125°04'510.2
2017-Jun-27 11:00N 49°58' W 125°10'611.5
2017-Jun-27 10:31N 50°03' W 125°14'510.4
2017-Jun-27 10:00N 50°07' W 125°19'4 8.8
2017-Jun-27 09:30N 50°11' W 125°22'2 3.6
2017-Jun-27 09:00N 50°13' W 125°23'2 3.1
2017-Jun-27 08:30N 50°14' W 125°23'2 3.7
2017-Jun-27 08:00N 50°16' W 125°24'2 3.8
2017-Jun-27 07:29N 50°18' W 125°25'2 3.8
2017-Jun-27 07:01N 50°20' W 125°25'4 4.5
2017-Jun-27 06:11N 50°21' W 125°31'6 4.8
2017-Jun-27 04:59N 50°22' W 125°40'5 6.2
2017-Jun-27 04:14N 50°23' W 125°47'38 8.8
2017-Jun-26 23:54N 50°36' W 126°43'3 7.8
2017-Jun-26 23:30N 50°38' W 126°47'4 8.7
2017-Jun-26 23:00N 50°41' W 126°52'6 7.9
2017-Jun-26 22:17N 50°43' W 127°00'3 8.6
2017-Jun-26 21:58N 50°44' W 127°04'510.1
2017-Jun-26 21:27N 50°46' W 127°12'410.0
2017-Jun-26 21:00N 50°47' W 127°18'510.1
2017-Jun-26 20:30N 50°50' W 127°26'510.0
2017-Jun-26 20:00N 50°52' W 127°33'5 9.7
2017-Jun-26 19:30N 50°55' W 127°39'5 9.2
2017-Jun-26 19:00N 50°58' W 127°44'5 9.4
2017-Jun-26 18:30N 51°02' W 127°48'5 9.6
2017-Jun-26 18:00N 51°06' W 127°52'510.1
2017-Jun-26 17:29N 51°11' W 127°53'510.2
2017-Jun-26 16:58N 51°16' W 127°54'6 9.9
2017-Jun-26 16:22N 51°22' W 127°58'4 9.3
2017-Jun-26 15:58N 51°24' W 128°02'4 9.4
2017-Jun-26 15:30N 51°27' W 128°08'5 9.4
2017-Jun-26 15:01N 51°31' W 128°12'5 9.6
2017-Jun-26 14:31N 51°35' W 128°17'10 9.9
2017-Jun-26 13:30N 51°43' W 128°25'510.0
2017-Jun-26 13:00N 51°47' W 128°29'510.1
2017-Jun-26 12:30N 51°52' W 128°33'510.2
2017-Jun-26 12:00N 51°57' W 128°36'510.6
2017-Jun-26 11:30N 52°02' W 128°38'510.5
2017-Jun-26 11:00N 52°07' W 128°41'306 8.7
2017-Jun-25 00:00N 55°54' W 134°30'98 8.2 160 / 151020.0 0.5 11.0
2017-Jun-24 12:00N 57°00' W 136°42'107 8.9 130 / 251022.0 5.4 12.9
2017-Jun-24 00:00N 58°06' W 139°18'115 9.5 100 / 51028.810.8 13.4
2017-Jun-23 12:00N 59°12' W 142°18'109 9.1 120 / 51032.010.8 11.6
2017-Jun-23 00:00N 59°54' W 145°36'   250 / 101032.210.8 16.3
2017-Jun-20 12:00N 59°30' W 143°54'110 9.2 140 / 101009.0 5.4 11.3
2017-Jun-20 00:00N 58°54' W 140°30'114 9.5 130 / 201006.3 5.4 14.5
2017-Jun-19 12:00N 58°12' W 137°06'   130 / 101009.010.8 14.1

Dump ship's entire track history